Roxobel, North Carolina
Current Conditions -  °F | °C
As of 12:55 PM on Friday 28 Nov 2014 (Local Time) from KASJ Reporting Station
Clear Clear  
Wind Chill: 41°   Ceiling: Unl
Heat Index: 41°   Visibility: 10mi
Dew Point: 21°   Wind: 3mph
Humidity: 45%   Direction: 310°NW
Pressure: 30.3"   Gusts: NA
Location:  36.2°N, 77.25°W
Report Text: KASJ 281755Z AUTO 31003KT 10SM CLR 05/M06 A3030 RMK AO2 T00501060 10051 21019
Loading
Personal Weather Stations






























Interactive Weather Map New forecast layout! Learn more

10-Day Weather Forecast

Advertisements
Track Severe Weather on mobile